Metar z pełnej godziny Komunikat METAR ze strony awiacja.imgw.pl Metar G00 EPWR METAR EPWR 291800Z 02007KT CAVOK 15/02 Q1023 =